OICI  Ilam Airport

Add Bookmark

Ilam, Iran

Status IATA
Operational IIL
Latitude Longitude
33° 35' 11" N 46° 24' 17" E
33.586601 46.404800
Local (DST + 5) UTC (GMT + 4)
Sep 23, 2014 03:47 Sep 23, 2014 12:17
Sunrise-Sunset Local UTC
Begin Civil Twilight 05:47 02:17
Sunrise 06:12 02:42
Sunset 06:21 14:51
End Civil Twilight 06:46 15:16

Current Weather

METAR Observed VFR
OICI 231200Z 27012KT 9999 FEW045 28/04 Q1017 A3006 Tue, Sep 23, 2014 @ 12:00 UTC
(17 Minutes ago)
Visual Flight Rules
Wind Visibility Clouds Conditions
270° at 12 knots (22 kph) 10 km or more
  • Few at 4,500' AGL
  • No significant weather
Temperatures Readings Precipitation
Current Temp 28°C (82°F)
Dewpoint 4°C (39°F)
Humidity 21%
Altimeter 30.03"Hg
Sea Level Pressure 1017mb
Field Elevation 4406.17'
None Recorded

Additional weather within a 185.2km radius of OICI

Map ICAO Location
OIGK 101.5km N (040°)
OICC 109.3km N (039°)
OICK 174.8km E (095°)

24 Hour Weather History

Loading
-

24 Hour Weather Graphs

Loading
-

CheckWX.com is intended as a tool to help pilots better visualize weather data. It is not intended as a substitute for an official weather briefing obtained from a Flight Service Station. CheckWX.com does not meet the FAA requirements for an official pre-flight weather briefing. Therefore, it's important that pilots still call and obtain an official FSS pre-flight weather briefing.